Wilmington, North Carolina
Current Conditions -  °F | °C
As of 3:53 PM on Wednesday 26 Nov 2014 (Local Time) from KILM Reporting Station
Overcast Overcast  
Wind Chill: 50°   Ceiling: 2200
Heat Index: 50°   Visibility: 10mi
Dew Point: 46°   Wind: 13mph
Humidity: 86%   Direction: 300°WNW
Pressure: 29.96"   Gusts: NA
Location:  34.24°N, 77.94°W
Report Text: KILM 262053Z 30011KT 10SM FEW015 BKN022 OVC029 10/08 A2996 RMK AO2 SLP144 60001 T01000078 51029
Loading
Personal Weather Stations






























Interactive Weather Map New forecast layout! Learn more

10-Day Weather Forecast

Advertisements
Track Severe Weather on mobile